Time;durP1;ratioP1;P1;durP2;ratioP2;P2;SDS_P1;SDS_P2;PMS_P1;PMS_P2;Temp;Humidity;BMP_temperature;BMP_pressure;BME280_temperature;BME280_humidity;BME280_pressure;Samples;Min_cycle;Max_cycle;Signal;HPM_P1;HPM_P2
2023/07/10 00:00:22;;;;;;;19.48;13.40;;;20.20;99.90;;;;;;5073887;28;20048;-88
2023/07/10 00:02:49;;;;;;;17.30;12.90;;;20.20;99.90;;;;;;5073334;28;20048;-87
2023/07/10 00:05:19;;;;;;;20.48;14.00;;;20.20;99.90;;;;;;5057341;28;20560;-87
2023/07/10 00:07:45;;;;;;;16.30;12.05;;;20.30;99.90;;;;;;5073921;28;20040;-87
2023/07/10 00:10:13;;;;;;;17.10;12.57;;;20.20;99.90;;;;;;5057220;28;20091;-86
2023/07/10 00:12:41;;;;;;;17.10;13.05;;;20.30;99.90;;;;;;5073484;28;20048;-87
2023/07/10 00:15:19;;;;;;;17.08;13.15;;;20.30;99.90;;;;;;5073920;28;20051;-87
2023/07/10 00:17:46;;;;;;;19.45;13.88;;;20.30;99.90;;;;;;5073797;28;20071;-87
2023/07/10 00:20:14;;;;;;;17.02;13.73;;;20.30;99.90;;;;;;5073624;28;20050;-87
2023/07/10 00:22:40;;;;;;;17.83;13.02;;;20.30;99.90;;;;;;5073351;28;20432;-87
2023/07/10 00:25:06;;;;;;;17.60;13.07;;;20.30;99.90;;;;;;5056723;28;20663;-87
2023/07/10 00:27:31;;;;;;;19.33;14.27;;;20.30;99.90;;;;;;5073766;28;20040;-87
2023/07/10 00:29:57;;;;;;;19.02;14.52;;;20.30;99.90;;;;;;5073240;28;20036;-88
2023/07/10 00:32:22;;;;;;;18.45;14.48;;;20.30;99.90;;;;;;5073867;28;20043;-87
2023/07/10 00:34:48;;;;;;;20.65;14.35;;;20.30;99.90;;;;;;5056877;28;20032;-87
2023/07/10 00:37:14;;;;;;;21.50;14.55;;;20.30;99.90;;;;;;5073530;28;20036;-87
2023/07/10 00:39:39;;;;;;;17.08;13.70;;;20.30;99.90;;;;;;5073236;28;20051;-87
2023/07/10 00:42:20;;;;;;;21.45;15.18;;;20.30;99.90;;;;;;5056577;28;20410;-87
2023/07/10 00:44:56;;;;;;;18.95;13.60;;;20.30;99.90;;;;;;5073043;28;20071;-87
2023/07/10 00:47:35;;;;;;;20.30;14.40;;;20.30;99.90;;;;;;5073554;28;20040;-86
2023/07/10 00:50:23;;;;;;;21.02;14.68;;;20.30;99.90;;;;;;5073402;28;20200;-86
2023/07/10 00:52:50;;;;;;;18.75;13.88;;;20.30;99.90;;;;;;5072767;28;20920;-86
2023/07/10 00:55:19;;;;;;;17.35;13.27;;;20.30;99.90;;;;;;5073594;28;20052;-86
2023/07/10 00:57:48;;;;;;;19.02;14.75;;;20.30;99.90;;;;;;5073297;28;20510;-87
2023/07/10 01:00:18;;;;;;;19.50;13.45;;;20.30;99.90;;;;;;5073177;28;20094;-87
2023/07/10 01:02:45;;;;;;;20.17;14.27;;;20.30;99.90;;;;;;5072515;28;20036;-87
2023/07/10 01:05:11;;;;;;;20.65;14.43;;;20.30;99.90;;;;;;5059276;28;20510;-87
2023/07/10 01:07:41;;;;;;;18.05;13.73;;;20.30;99.90;;;;;;5077310;28;20068;-87
2023/07/10 01:10:09;;;;;;;17.02;13.88;;;20.30;99.90;;;;;;5077106;28;20078;-86
2023/07/10 01:12:37;;;;;;;18.27;13.38;;;20.30;99.90;;;;;;5060556;28;20050;-86
2023/07/10 01:15:03;;;;;;;17.15;13.02;;;20.30;99.90;;;;;;5060269;28;20044;-87
2023/07/10 01:17:30;;;;;;;18.58;13.48;;;20.30;99.90;;;;;;5060334;28;20044;-86
2023/07/10 01:20:02;;;;;;;19.10;13.95;;;20.30;99.90;;;;;;5076916;28;20047;-87
2023/07/10 01:22:28;;;;;;;18.75;15.40;;;20.30;99.90;;;;;;5060437;28;20044;-86
2023/07/10 01:24:55;;;;;;;19.77;13.75;;;20.30;99.90;;;;;;5076621;28;20036;-86
2023/07/10 01:27:21;;;;;;;18.38;14.35;;;20.30;99.90;;;;;;5077161;28;20388;-86
2023/07/10 01:29:56;;;;;;;17.17;13.38;;;20.30;99.90;;;;;;5076775;28;20089;-87
2023/07/10 01:32:22;;;;;;;20.48;13.18;;;20.30;99.90;;;;;;5060245;28;20520;-87
2023/07/10 01:34:53;;;;;;;19.55;13.93;;;20.20;99.90;;;;;;5076354;28;20048;-87
2023/07/10 01:37:18;;;;;;;16.90;12.23;;;20.20;99.90;;;;;;5076750;28;20040;-86
2023/07/10 01:39:52;;;;;;;17.38;13.63;;;20.20;99.90;;;;;;5059786;28;20032;-86
2023/07/10 01:42:18;;;;;;;17.25;13.45;;;20.20;99.90;;;;;;5059821;28;20047;-86
2023/07/10 01:44:47;;;;;;;16.02;13.93;;;20.20;99.90;;;;;;5059874;28;20181;-86
2023/07/10 01:47:14;;;;;;;16.55;13.65;;;20.20;99.90;;;;;;5076672;28;20033;-86
2023/07/10 01:49:47;;;;;;;18.13;13.50;;;20.20;99.90;;;;;;5076550;28;20539;-86
2023/07/10 01:52:16;;;;;;;19.83;15.00;;;20.20;99.90;;;;;;5076523;28;20047;-86
2023/07/10 01:54:41;;;;;;;17.60;14.05;;;20.20;99.90;;;;;;5075837;28;20036;-87
2023/07/10 01:57:09;;;;;;;19.00;15.13;;;20.20;99.90;;;;;;5076391;28;20086;-86
2023/07/10 01:59:34;;;;;;;18.83;15.55;;;20.20;99.90;;;;;;5075999;28;20494;-86
2023/07/10 02:02:00;;;;;;;19.90;15.80;;;20.20;99.90;;;;;;5076142;28;20036;-87
2023/07/10 02:04:27;;;;;;;19.38;15.82;;;20.20;99.90;;;;;;5076045;28;20027;-87
2023/07/10 02:06:56;;;;;;;20.85;17.45;;;20.20;99.90;;;;;;5076235;28;20036;-87
2023/07/10 02:09:27;;;;;;;18.75;16.10;;;20.20;99.90;;;;;;5059601;28;20055;-86
2023/07/10 02:11:53;;;;;;;20.15;17.23;;;20.10;99.90;;;;;;5076088;28;20036;-86
2023/07/10 02:14:19;;;;;;;23.85;19.33;;;20.10;99.90;;;;;;5075506;28;20036;-86
2023/07/10 02:16:45;;;;;;;23.27;18.85;;;20.10;99.90;;;;;;5075539;28;20044;-86
2023/07/10 02:19:11;;;;;;;22.73;19.50;;;20.00;99.90;;;;;;5075734;28;20036;-87
2023/07/10 02:21:37;;;;;;;23.33;20.02;;;20.00;99.90;;;;;;5059056;28;20126;-87
2023/07/10 02:24:03;;;;;;;22.55;20.15;;;20.00;99.90;;;;;;5075309;28;20044;-86
2023/07/10 02:26:29;;;;;;;22.83;20.23;;;20.00;99.90;;;;;;5075913;28;20036;-86
2023/07/10 02:28:57;;;;;;;22.42;20.10;;;20.00;99.90;;;;;;5075886;28;20127;-86
2023/07/10 02:31:23;;;;;;;26.30;21.80;;;20.00;99.90;;;;;;5059225;28;20028;-86
2023/07/10 02:33:49;;;;;;;24.17;18.70;;;20.00;99.90;;;;;;5058892;28;20032;-87
2023/07/10 02:36:15;;;;;;;23.75;20.33;;;20.00;99.90;;;;;;5075515;28;20054;-86
2023/07/10 02:38:40;;;;;;;25.02;20.75;;;20.00;99.90;;;;;;5058855;28;20043;-87
2023/07/10 02:41:06;;;;;;;24.48;21.05;;;20.00;99.90;;;;;;5058762;28;20547;-87
2023/07/10 02:43:32;;;;;;;23.85;21.30;;;20.00;99.90;;;;;;5075032;28;20044;-86
2023/07/10 02:45:57;;;;;;;24.17;18.75;;;20.00;99.90;;;;;;5075504;28;20530;-87
2023/07/10 02:48:23;;;;;;;24.58;21.13;;;20.00;99.90;;;;;;5075410;28;20040;-87
2023/07/10 02:50:49;;;;;;;24.50;21.52;;;20.00;99.90;;;;;;5075165;28;20081;-87
2023/07/10 02:53:15;;;;;;;29.08;22.38;;;20.10;99.90;;;;;;5074701;28;20063;-87
2023/07/10 02:55:40;;;;;;;25.05;22.40;;;20.00;99.90;;;;;;5075759;28;20047;-87
2023/07/10 02:58:06;;;;;;;27.92;22.90;;;20.00;99.90;;;;;;5075194;28;20040;-86
2023/07/10 03:00:32;;;;;;;27.05;23.02;;;20.00;99.90;;;;;;5075225;28;20036;-87
2023/07/10 03:02:58;;;;;;;25.70;22.48;;;19.90;99.90;;;;;;5074748;28;20073;-87
2023/07/10 03:05:25;;;;;;;25.75;21.88;;;20.00;99.90;;;;;;5088510;28;20130;-87
2023/07/10 03:07:51;;;;;;;25.92;23.23;;;19.90;99.90;;;;;;5060037;28;20040;-87
2023/07/10 03:10:17;;;;;;;26.90;24.08;;;20.00;99.90;;;;;;5076190;28;20036;-87
2023/07/10 03:12:43;;;;;;;30.00;26.52;;;19.90;99.90;;;;;;5075839;28;20036;-87
2023/07/10 03:15:09;;;;;;;33.78;28.05;;;19.90;99.90;;;;;;5076278;28;20040;-87
2023/07/10 03:17:35;;;;;;;30.02;26.90;;;19.90;99.90;;;;;;5075962;28;20051;-87
2023/07/10 03:20:01;;;;;;;31.55;28.17;;;19.80;99.90;;;;;;5058970;28;20044;-87
2023/07/10 03:22:27;;;;;;;31.67;28.27;;;19.80;99.90;;;;;;5075362;28;20461;-86
2023/07/10 03:24:53;;;;;;;33.60;29.88;;;19.80;99.90;;;;;;5074667;28;20032;-87
2023/07/10 03:27:19;;;;;;;33.13;29.58;;;19.80;99.90;;;;;;5092220;28;20402;-87
2023/07/10 03:29:44;;;;;;;32.80;29.33;;;19.80;99.90;;;;;;5074800;28;20040;-87
2023/07/10 03:32:10;;;;;;;33.95;30.40;;;19.80;99.90;;;;;;5074252;28;20032;-87
2023/07/10 03:34:36;;;;;;;31.83;28.23;;;19.80;99.90;;;;;;5073968;28;20040;-87
2023/07/10 03:37:02;;;;;;;31.63;27.83;;;19.70;99.90;;;;;;5074260;28;20039;-87
2023/07/10 03:39:28;;;;;;;31.63;28.30;;;19.70;99.90;;;;;;5057506;28;20089;-87
2023/07/10 03:41:54;;;;;;;31.23;27.85;;;19.70;99.90;;;;;;5074543;28;20066;-87
2023/07/10 03:44:20;;;;;;;34.53;30.80;;;19.70;99.90;;;;;;5073569;28;20486;-87
2023/07/10 03:46:46;;;;;;;31.35;27.88;;;19.70;99.90;;;;;;5074394;28;20033;-87
2023/07/10 03:49:11;;;;;;;30.42;27.02;;;19.70;99.90;;;;;;5074103;28;20497;-86
2023/07/10 03:51:37;;;;;;;33.80;30.20;;;19.70;99.90;;;;;;5073871;28;20039;-86
2023/07/10 03:54:04;;;;;;;32.42;28.90;;;19.70;99.90;;;;;;5073615;28;20122;-87
2023/07/10 03:56:30;;;;;;;31.92;27.27;;;19.70;99.90;;;;;;5057291;28;20176;-86
2023/07/10 03:58:56;;;;;;;33.55;30.20;;;19.60;99.90;;;;;;5073615;28;20036;-87
2023/07/10 04:01:21;;;;;;;31.00;27.80;;;19.60;99.90;;;;;;5057478;28;20048;-86
2023/07/10 04:03:47;;;;;;;32.20;28.52;;;19.60;99.90;;;;;;5073289;28;20040;-86
2023/07/10 04:06:14;;;;;;;31.75;28.48;;;19.60;99.90;;;;;;5073847;28;20044;-87
2023/07/10 04:08:41;;;;;;;29.98;26.77;;;19.60;99.90;;;;;;5073834;28;20233;-86
2023/07/10 04:11:19;;;;;;;31.25;27.35;;;19.60;99.90;;;;;;5057210;28;20532;-86
2023/07/10 04:13:46;;;;;;;29.67;26.75;;;19.60;99.90;;;;;;5073180;28;20139;-86
2023/07/10 04:16:16;;;;;;;30.40;27.27;;;19.50;99.90;;;;;;5057163;28;20047;-86
2023/07/10 04:18:43;;;;;;;31.40;28.17;;;19.60;99.90;;;;;;5073661;28;20040;-86
2023/07/10 04:21:17;;;;;;;28.98;26.00;;;19.50;99.90;;;;;;5056633;28;20044;-86
2023/07/10 04:23:42;;;;;;;29.20;26.08;;;19.60;99.90;;;;;;5072969;28;20068;-87
2023/07/10 04:26:21;;;;;;;28.02;25.08;;;19.50;99.90;;;;;;5073717;28;20075;-86
2023/07/10 04:28:48;;;;;;;27.15;24.33;;;19.60;99.90;;;;;;5073454;28;20079;-86
2023/07/10 04:31:15;;;;;;;27.25;24.55;;;19.50;99.90;;;;;;5073419;28;20055;-86
2023/07/10 04:33:41;;;;;;;25.98;23.15;;;19.60;99.90;;;;;;5072864;28;20075;-86
2023/07/10 04:36:07;;;;;;;26.70;23.90;;;19.60;99.90;;;;;;5073759;28;20071;-86
2023/07/10 04:38:33;;;;;;;26.73;23.88;;;19.50;99.90;;;;;;5073650;28;20078;-86
2023/07/10 04:41:01;;;;;;;25.98;23.17;;;19.50;99.90;;;;;;5073659;28;20072;-87
2023/07/10 04:43:28;;;;;;;27.50;24.35;;;19.50;99.90;;;;;;5056073;28;20036;-86
2023/07/10 04:45:55;;;;;;;29.90;22.98;;;19.50;99.90;;;;;;5078146;28;20057;-86
2023/07/10 04:48:21;;;;;;;25.50;22.42;;;19.50;99.90;;;;;;5091235;28;20035;-86
2023/07/10 04:50:48;;;;;;;24.02;21.65;;;19.50;99.90;;;;;;5076522;28;20398;-87
2023/07/10 04:53:14;;;;;;;24.20;21.80;;;19.50;99.90;;;;;;5076185;28;20040;-86
2023/07/10 04:55:40;;;;;;;22.65;20.20;;;19.40;99.90;;;;;;5093401;28;20511;-86
2023/07/10 04:58:06;;;;;;;25.40;20.75;;;19.40;99.90;;;;;;5111834;28;20079;-86
2023/07/10 05:00:31;;;;;;;23.55;20.23;;;19.40;99.90;;;;;;5092890;28;20067;-86
2023/07/10 05:02:57;;;;;;;21.60;19.30;;;19.40;99.90;;;;;;5093170;28;20104;-86
2023/07/10 05:05:22;;;;;;;19.55;17.45;;;19.40;99.90;;;;;;5076758;28;20512;-86
2023/07/10 05:07:48;;;;;;;19.52;17.23;;;19.40;99.90;;;;;;5093907;28;20075;-86
2023/07/10 05:10:13;;;;;;;19.45;16.50;;;19.40;99.90;;;;;;5093694;28;20042;-86
2023/07/10 05:12:39;;;;;;;18.35;16.42;;;19.40;99.90;;;;;;5092693;28;20468;-86
2023/07/10 05:15:05;;;;;;;17.42;15.45;;;19.40;99.90;;;;;;5093429;28;20043;-86
2023/07/10 05:17:31;;;;;;;16.55;14.68;;;19.40;99.90;;;;;;5076416;28;20086;-86
2023/07/10 05:19:56;;;;;;;16.00;13.30;;;19.40;99.90;;;;;;5093070;28;20071;-86
2023/07/10 05:22:22;;;;;;;15.65;11.60;;;19.40;99.90;;;;;;5093018;28;20040;-86
2023/07/10 05:24:48;;;;;;;15.68;11.35;;;19.30;99.90;;;;;;5092798;28;20042;-86
2023/07/10 05:27:13;;;;;;;12.88;9.48;;;19.30;99.90;;;;;;5076358;28;20084;-86
2023/07/10 05:29:39;;;;;;;11.57;8.35;;;19.20;99.90;;;;;;5076103;28;20114;-86
2023/07/10 05:32:05;;;;;;;12.70;8.55;;;19.20;99.90;;;;;;5092982;28;20105;-86
2023/07/10 05:34:30;;;;;;;12.10;7.75;;;19.20;99.90;;;;;;5092401;28;20046;-86
2023/07/10 05:36:57;;;;;;;10.02;6.60;;;19.10;99.90;;;;;;5092923;28;20043;-86
2023/07/10 05:39:23;;;;;;;11.38;6.35;;;19.10;99.90;;;;;;5092884;28;20502;-86
2023/07/10 05:41:49;;;;;;;10.85;6.15;;;19.10;99.90;;;;;;5092419;28;20051;-86
2023/07/10 05:44:14;;;;;;;10.80;6.00;;;19.10;99.90;;;;;;5092430;28;20035;-86
2023/07/10 05:46:40;;;;;;;11.25;6.72;;;19.10;99.90;;;;;;5092889;28;20044;-87
2023/07/10 05:49:06;;;;;;;10.20;5.70;;;19.10;99.90;;;;;;5075998;28;20036;-86
2023/07/10 05:51:32;;;;;;;9.65;4.68;;;19.10;99.90;;;;;;5095934;28;20036;-86
2023/07/10 05:53:58;;;;;;;9.13;5.03;;;19.10;99.90;;;;;;5079060;28;20039;-86
2023/07/10 05:56:23;;;;;;;9.13;4.65;;;19.10;99.90;;;;;;5096240;28;20489;-86
2023/07/10 05:58:50;;;;;;;8.82;4.18;;;19.10;99.90;;;;;;5079964;28;20051;-86
2023/07/10 06:01:16;;;;;;;9.45;4.65;;;19.10;99.90;;;;;;5079218;28;20054;-87
2023/07/10 06:03:44;;;;;;;9.30;4.75;;;19.10;99.90;;;;;;5095719;28;20028;-86
2023/07/10 06:06:10;;;;;;;11.98;5.35;;;19.10;99.90;;;;;;5096422;28;20039;-86
2023/07/10 06:08:36;;;;;;;9.52;5.03;;;19.10;99.90;;;;;;5096182;28;20390;-87
2023/07/10 06:11:03;;;;;;;9.90;5.57;;;19.20;99.90;;;;;;5079136;28;20036;-86
2023/07/10 06:13:29;;;;;;;11.93;5.43;;;19.20;99.90;;;;;;5113812;28;20375;-86
2023/07/10 06:15:57;;;;;;;10.50;4.63;;;19.20;99.90;;;;;;5092810;28;20036;-87
2023/07/10 06:18:23;;;;;;;9.77;4.22;;;19.20;99.90;;;;;;5093066;28;20516;-86
2023/07/10 06:20:51;;;;;;;10.90;5.10;;;19.30;99.90;;;;;;5094601;28;20103;-86
2023/07/10 06:23:17;;;;;;;9.05;4.93;;;19.30;99.90;;;;;;5093514;28;20070;-86
2023/07/10 06:25:45;;;;;;;8.90;4.38;;;19.30;99.90;;;;;;5075456;28;20075;-86
2023/07/10 06:28:12;;;;;;;10.80;4.93;;;19.30;99.90;;;;;;5092569;28;20036;-86
2023/07/10 06:30:39;;;;;;;9.73;4.93;;;19.30;99.90;;;;;;5092666;28;20043;-86
2023/07/10 06:33:04;;;;;;;9.07;4.78;;;19.30;99.90;;;;;;5091817;28;20044;-86
2023/07/10 06:35:30;;;;;;;9.52;5.45;;;19.40;99.90;;;;;;5092404;28;20047;-86
2023/07/10 06:37:55;;;;;;;11.57;5.72;;;19.40;99.90;;;;;;5092252;28;20040;-86
2023/07/10 06:40:21;;;;;;;11.30;5.72;;;19.40;99.90;;;;;;5092162;28;20571;-87
2023/07/10 06:42:47;;;;;;;10.50;4.90;;;19.50;99.90;;;;;;5074589;28;20112;-87
2023/07/10 06:45:13;;;;;;;9.55;5.28;;;19.50;99.90;;;;;;5092254;28;20044;-86
2023/07/10 06:47:41;;;;;;;10.82;5.35;;;19.60;99.90;;;;;;5092197;28;20035;-87
2023/07/10 06:50:08;;;;;;;11.07;5.60;;;19.70;99.90;;;;;;5092645;28;20376;-87
2023/07/10 06:52:37;;;;;;;10.82;5.10;;;19.70;99.90;;;;;;5091866;28;20048;-88
2023/07/10 06:55:03;;;;;;;10.15;4.45;;;19.70;99.90;;;;;;5091641;28;20043;-87
2023/07/10 06:57:28;;;;;;;9.18;4.07;;;19.70;99.90;;;;;;5078031;28;20035;-87
2023/07/10 06:59:54;;;;;;;11.80;4.38;;;19.80;99.90;;;;;;5095490;28;20047;-87
2023/07/10 07:02:19;;;;;;;9.50;3.78;;;19.80;99.90;;;;;;5094974;28;20413;-87
2023/07/10 07:04:45;;;;;;;10.65;4.43;;;19.80;99.90;;;;;;5094668;28;20051;-87
2023/07/10 07:07:10;;;;;;;10.82;4.22;;;19.80;99.90;;;;;;5093652;28;20413;-87
2023/07/10 07:09:36;;;;;;;9.88;3.75;;;19.90;99.90;;;;;;5094635;28;20088;-87
2023/07/10 07:12:02;;;;;;;9.35;3.42;;;19.90;99.90;;;;;;5078220;28;20035;-87
2023/07/10 07:14:27;;;;;;;10.45;3.30;;;20.00;99.90;;;;;;5077500;28;20122;-88
2023/07/10 07:16:53;;;;;;;10.82;3.17;;;20.00;99.90;;;;;;5113285;28;20039;-87
2023/07/10 07:19:19;;;;;;;7.82;2.75;;;20.00;99.90;;;;;;5094943;28;20048;-87
2023/07/10 07:21:45;;;;;;;9.98;2.60;;;20.00;99.90;;;;;;5094333;28;20039;-86
2023/07/10 07:24:10;;;;;;;7.50;2.92;;;20.10;99.90;;;;;;5094341;28;20065;-87
2023/07/10 07:26:36;;;;;;;11.02;3.08;;;20.00;99.90;;;;;;5095163;28;20122;-87
2023/07/10 07:29:02;;;;;;;7.35;3.00;;;20.10;99.90;;;;;;5094660;28;20097;-87
2023/07/10 07:31:27;;;;;;;9.15;2.83;;;20.10;99.90;;;;;;5077797;28;20028;-87
2023/07/10 07:33:54;;;;;;;10.85;2.92;;;20.10;99.90;;;;;;5094044;28;20108;-87
2023/07/10 07:36:20;;;;;;;9.38;2.60;;;20.20;99.90;;;;;;5076391;28;20131;-86
2023/07/10 07:38:46;;;;;;;8.30;2.40;;;20.30;99.90;;;;;;5093537;28;20123;-86
2023/07/10 07:41:12;;;;;;;11.32;2.65;;;20.30;99.90;;;;;;5077170;28;20035;-86
2023/07/10 07:43:38;;;;;;;9.73;2.45;;;20.40;99.90;;;;;;5076071;28;20039;-86
2023/07/10 07:46:04;;;;;;;8.10;2.63;;;20.40;99.90;;;;;;5093891;28;20035;-87
2023/07/10 07:48:29;;;;;;;10.63;2.80;;;20.50;99.90;;;;;;5094785;28;20067;-87
2023/07/10 07:51:03;;;;;;;9.32;2.78;;;20.60;99.90;;;;;;5094266;28;20036;-87
2023/07/10 07:53:30;;;;;;;8.50;2.30;;;20.70;99.90;;;;;;5093599;28;20044;-87
2023/07/10 07:55:56;;;;;;;8.38;2.10;;;20.70;99.90;;;;;;5094406;28;20086;-87
2023/07/10 07:58:22;;;;;;;7.57;2.42;;;20.80;99.90;;;;;;5094387;28;20083;-87
2023/07/10 08:00:49;;;;;;;9.77;2.40;;;20.80;99.90;;;;;;5094247;28;20051;-87
2023/07/10 08:03:15;;;;;;;8.40;2.40;;;20.90;99.90;;;;;;5093162;28;20032;-87
2023/07/10 08:05:41;;;;;;;9.15;2.45;;;20.90;99.90;;;;;;5094010;28;20043;-88
2023/07/10 08:08:10;;;;;;;9.70;2.78;;;21.00;99.90;;;;;;5094058;28;20040;-88
2023/07/10 08:10:39;;;;;;;9.40;3.05;;;21.10;99.90;;;;;;5059497;28;20051;-87
2023/07/10 08:13:07;;;;;;;8.43;3.05;;;21.10;99.90;;;;;;5092833;28;20036;-87
2023/07/10 08:15:48;;;;;;;9.70;3.00;;;21.10;99.90;;;;;;5093811;28;20043;-87
2023/07/10 08:18:13;;;;;;;9.90;3.20;;;21.10;99.90;;;;;;5077495;28;20181;-88
2023/07/10 08:20:40;;;;;;;11.20;3.72;;;21.20;99.90;;;;;;5094032;28;20545;-87
2023/07/10 08:23:06;;;;;;;11.07;3.90;;;21.30;99.90;;;;;;5092881;28;20517;-87
2023/07/10 08:25:34;;;;;;;9.13;3.88;;;21.40;99.90;;;;;;5076938;28;20043;-87
2023/07/10 08:28:05;;;;;;;9.52;3.35;;;21.40;99.90;;;;;;5076129;28;20051;-87
2023/07/10 08:30:30;;;;;;;9.57;3.53;;;21.50;99.90;;;;;;5076696;28;20118;-87
2023/07/10 08:32:56;;;;;;;10.38;3.30;;;21.50;99.90;;;;;;5076465;28;20173;-87
2023/07/10 08:35:22;;;;;;;10.38;3.42;;;21.60;99.90;;;;;;5076742;28;20126;-87
2023/07/10 08:37:48;;;;;;;10.98;3.50;;;21.60;99.90;;;;;;5093643;28;20040;-87
2023/07/10 08:40:31;;;;;;;10.60;3.20;;;21.70;99.90;;;;;;5077153;28;20042;-87
2023/07/10 08:43:01;;;;;;;9.48;3.13;;;21.80;99.90;;;;;;5078506;28;20514;-87
2023/07/10 08:45:36;;;;;;;11.73;3.42;;;21.80;99.90;;;;;;5073497;28;20036;-87
2023/07/10 08:48:26;;;;;;;10.88;2.90;;;21.90;99.90;;;;;;5073274;28;20044;-87
2023/07/10 08:50:56;;;;;;;11.65;3.30;;;21.90;99.90;;;;;;5073356;28;20036;-87
2023/07/10 08:53:31;;;;;;;9.98;3.38;;;21.90;99.90;;;;;;5039477;28;20072;-87
2023/07/10 08:56:22;;;;;;;10.07;2.80;;;21.90;99.90;;;;;;5056744;28;20487;-87
2023/07/10 08:58:47;;;;;;;10.43;2.78;;;22.00;99.90;;;;;;5058211;28;20036;-87
2023/07/10 09:01:29;;;;;;;8.85;2.88;;;22.10;99.90;;;;;;5090512;28;20079;-87
2023/07/10 09:03:58;;;;;;;9.88;3.08;;;22.20;99.90;;;;;;5089316;28;20043;-86
2023/07/10 09:06:44;;;;;;;11.23;3.10;;;22.20;99.90;;;;;;5089949;28;20121;-86
2023/07/10 09:09:41;;;;;;;10.45;3.00;;;22.20;99.90;;;;;;5072870;28;20044;-87
2023/07/10 09:12:20;;;;;;;10.65;2.88;;;22.20;99.90;;;;;;5081435;28;20410;-87
2023/07/10 09:14:56;;;;;;;10.35;3.10;;;22.30;99.90;;;;;;5090861;28;20039;-87
2023/07/10 09:17:49;;;;;;;8.38;2.65;;;22.30;99.90;;;;;;5100843;28;20069;-87
2023/07/10 09:20:19;;;;;;;10.95;3.03;;;22.30;99.90;;;;;;5092362;28;20119;-87
2023/07/10 09:22:53;;;;;;;9.93;2.95;;;22.40;99.90;;;;;;5092136;28;20410;-87
2023/07/10 09:25:21;;;;;;;9.20;2.88;;;22.50;99.90;;;;;;5086282;28;20398;-87
2023/07/10 09:27:47;;;;;;;10.73;2.75;;;22.50;99.90;;;;;;5073461;28;20085;-87
2023/07/10 09:30:40;;;;;;;9.50;2.90;;;22.50;99.90;;;;;;5091739;28;20040;-88
2023/07/10 09:33:09;;;;;;;11.48;2.95;;;22.50;99.90;;;;;;5096566;28;20079;-87
2023/07/10 09:35:37;;;;;;;8.73;2.30;;;22.50;99.90;;;;;;5063960;28;20112;-87
2023/07/10 09:38:03;;;;;;;10.52;2.78;;;22.50;99.90;;;;;;5097033;28;20126;-87
2023/07/10 09:40:43;;;;;;;9.77;3.17;;;22.60;99.90;;;;;;5096947;28;20089;-87
2023/07/10 09:43:19;;;;;;;10.20;2.95;;;22.70;99.90;;;;;;5096429;28;20036;-87
2023/07/10 09:45:48;;;;;;;9.77;2.92;;;22.80;99.90;;;;;;5096430;28;20083;-87
2023/07/10 09:48:36;;;;;;;10.82;2.75;;;22.80;99.90;;;;;;5079997;28;20058;-87
2023/07/10 09:51:08;;;;;;;10.98;2.90;;;22.80;99.90;;;;;;5080175;28;20047;-87
2023/07/10 09:53:38;;;;;;;13.02;3.30;;;22.90;99.90;;;;;;5096273;28;20051;-88
2023/07/10 09:56:04;;;;;;;9.68;2.58;;;22.90;99.90;;;;;;5079540;28;20502;-87
2023/07/10 09:58:31;;;;;;;12.77;3.45;;;23.00;99.90;;;;;;5096868;28;20062;-87
2023/07/10 10:01:06;;;;;;;10.35;3.15;;;23.00;99.90;;;;;;5096919;28;20147;-87
2023/07/10 10:03:39;;;;;;;12.05;2.90;;;23.00;99.40;;;;;;5079248;28;20086;-87
2023/07/10 10:06:05;;;;;;;;;;;23.10;99.90;;;;;;5097108;28;20036;-87
2023/07/10 10:08:44;;;;;;;9.75;2.90;;;23.20;99.90;;;;;;5096536;28;19967;-86
2023/07/10 10:11:12;;;;;;;13.20;3.15;;;23.30;99.90;;;;;;5096513;28;20072;-86
2023/07/10 10:13:56;;;;;;;10.10;3.13;;;23.40;99.90;;;;;;5078815;28;20398;-87
2023/07/10 10:16:31;;;;;;;11.77;3.15;;;23.40;99.90;;;;;;5096313;28;20048;-87
2023/07/10 10:19:15;;;;;;;10.98;2.83;;;23.60;99.90;;;;;;5096234;28;20515;-87
2023/07/10 10:21:43;;;;;;;11.65;3.10;;;23.70;99.90;;;;;;5079485;28;20406;-87
2023/07/10 10:24:13;;;;;;;15.45;3.10;;;23.80;99.90;;;;;;5095103;28;20036;-87
2023/07/10 10:27:09;;;;;;;11.25;2.97;;;23.80;99.90;;;;;;5054676;28;20412;-87
2023/07/10 10:30:09;;;;;;;10.90;3.08;;;24.00;99.90;;;;;;5049303;28;20455;-87
2023/07/10 10:32:48;;;;;;;13.65;3.10;;;24.00;99.90;;;;;;5033753;28;20048;-87
2023/07/10 10:35:21;;;;;;;10.35;2.92;;;24.10;99.20;;;;;;5054325;28;20036;-87
2023/07/10 10:38:14;;;;;;;13.07;3.08;;;24.10;98.60;;;;;;5054530;28;20131;-87
2023/07/10 10:41:03;;;;;;;11.60;2.80;;;23.90;98.80;;;;;;5054791;28;20495;-86
2023/07/10 10:43:34;;;;;;;12.38;2.90;;;23.80;98.20;;;;;;5018106;28;20557;-87
2023/07/10 10:46:21;;;;;;;10.98;2.97;;;23.80;97.70;;;;;;5054242;28;20048;-87
2023/07/10 10:49:10;;;;;;;10.63;3.20;;;23.90;98.20;;;;;;5054343;28;20044;-87
2023/07/10 10:51:50;;;;;;;11.13;3.00;;;24.00;96.70;;;;;;5053668;28;20072;-87
2023/07/10 10:54:22;;;;;;;9.88;2.80;;;24.20;95.70;;;;;;5053112;28;20094;-87
2023/07/10 10:57:02;;;;;;;8.90;2.72;;;24.30;95.30;;;;;;5053430;28;20048;-87
2023/07/10 11:00:06;;;;;;;10.52;3.00;;;24.30;94.10;;;;;;5037951;28;20052;-87
2023/07/10 11:02:53;;;;;;;12.30;3.00;;;24.40;94.40;;;;;;5053199;28;20048;-87
2023/07/10 11:05:40;;;;;;;10.70;2.42;;;24.50;94.70;;;;;;5072883;28;20499;-87
2023/07/10 11:08:26;;;;;;;9.52;2.50;;;24.60;93.20;;;;;;5093483;28;20063;-87
2023/07/10 11:10:53;;;;;;;9.82;2.50;;;24.60;93.20;;;;;;5094047;28;20097;-87
2023/07/10 11:13:37;;;;;;;12.15;3.38;;;24.60;92.80;;;;;;5072801;28;20105;-87
2023/07/10 11:16:05;;;;;;;12.68;2.95;;;24.70;94.20;;;;;;5090736;28;20054;-87
2023/07/10 11:18:31;;;;;;;11.27;2.58;;;24.80;96.30;;;;;;5091980;28;20046;-88
2023/07/10 11:21:01;;;;;;;10.02;2.78;;;24.90;94.40;;;;;;5089255;28;20048;-87
2023/07/10 11:23:42;;;;;;;10.43;3.42;;;25.00;92.60;;;;;;5091829;28;20043;-87
2023/07/10 11:26:24;;;;;;;10.27;2.63;;;25.00;91.10;;;;;;5091424;28;20040;-87
2023/07/10 11:28:54;;;;;;;10.40;2.80;;;24.90;87.80;;;;;;5092740;28;20486;-87
2023/07/10 11:31:36;;;;;;;9.60;2.80;;;24.80;89.50;;;;;;5073023;28;20113;-87
2023/07/10 11:34:05;;;;;;;11.65;3.17;;;24.70;91.30;;;;;;5089129;28;20520;-87
2023/07/10 11:36:34;;;;;;;9.77;2.90;;;24.80;91.30;;;;;;5091586;28;20386;-88
2023/07/10 11:39:10;;;;;;;13.00;3.42;;;24.70;90.70;;;;;;5089815;28;20145;-87
2023/07/10 11:41:42;;;;;;;10.48;2.58;;;24.80;91.30;;;;;;5074595;28;20044;-87
2023/07/10 11:44:21;;;;;;;10.18;2.47;;;24.80;90.20;;;;;;5091471;28;20036;-87
2023/07/10 11:47:05;;;;;;;8.25;2.15;;;24.70;87.70;;;;;;5090794;28;20043;-88
2023/07/10 11:50:00;;;;;;;9.23;2.30;;;24.90;89.20;;;;;;5075291;28;20036;-87
2023/07/10 11:52:31;;;;;;;10.00;2.42;;;24.90;87.90;;;;;;5060097;28;20074;-88
2023/07/10 11:54:57;;;;;;;9.40;2.22;;;25.10;90.00;;;;;;5059601;28;20036;-87
2023/07/10 11:57:28;;;;;;;9.90;2.53;;;25.30;88.30;;;;;;5092008;28;20080;-88
2023/07/10 11:59:56;;;;;;;10.32;2.30;;;25.30;86.10;;;;;;5074269;28;20032;-87
2023/07/10 12:02:37;;;;;;;8.95;1.80;;;25.20;82.30;;;;;;5075414;28;20512;-87
2023/07/10 12:05:22;;;;;;;9.93;2.40;;;25.10;82.20;;;;;;5089767;28;20040;-88
2023/07/10 12:08:14;;;;;;;7.75;2.03;;;25.10;80.10;;;;;;5091368;28;20516;-87
2023/07/10 12:10:46;;;;;;;10.32;2.42;;;25.10;78.30;;;;;;5087250;28;20383;-87
2023/07/10 12:13:25;;;;;;;9.18;2.15;;;25.20;81.10;;;;;;5092698;28;20079;-87
2023/07/10 12:15:52;;;;;;;8.55;2.60;;;25.30;82.00;;;;;;5057226;28;20032;-88
2023/07/10 12:18:23;;;;;;;8.00;2.28;;;25.50;82.50;;;;;;5057250;28;20048;-87
2023/07/10 12:20:51;;;;;;;10.27;2.47;;;25.50;78.50;;;;;;5057303;28;20046;-88
2023/07/10 12:23:17;;;;;;;9.30;2.10;;;25.50;77.90;;;;;;5073415;28;20032;-88
2023/07/10 12:25:54;;;;;;;9.85;2.42;;;25.60;78.50;;;;;;5085541;28;20806;-88
2023/07/10 12:28:22;;;;;;;7.70;2.00;;;25.60;77.00;;;;;;5077062;28;20434;-88
2023/07/10 12:30:50;;;;;;;9.82;2.33;;;25.60;78.80;;;;;;5077373;28;20039;-88
2023/07/10 12:33:34;;;;;;;9.63;2.10;;;25.70;76.80;;;;;;5093892;28;20062;-88
2023/07/10 12:36:33;;;;;;;9.95;2.42;;;25.70;75.60;;;;;;5093727;28;20520;-88
2023/07/10 12:39:01;;;;;;;7.85;2.00;;;25.50;73.60;;;;;;5076238;28;20040;-86
2023/07/10 12:41:38;;;;;;;10.40;2.38;;;25.40;76.90;;;;;;5077626;28;20444;-86
2023/07/10 12:44:05;;;;;;;11.55;2.55;;;25.50;77.10;;;;;;5090383;28;20036;-87
2023/07/10 12:46:31;;;;;;;9.70;2.25;;;25.30;76.20;;;;;;5109649;28;20112;-84
2023/07/10 12:49:00;;;;;;;12.02;2.28;;;25.20;77.40;;;;;;5076244;28;20071;-86